Terminal Aerodrome Forecast
Issued by NWS

Home | Current Version | Previous Version | Text Only | Print | Product List | Glossary On
Versions: 1 2 3 4 5 6 7 8 9 10 11 12 13 14 15 16 17 18 19
825
FTUS41 KBTV 121740
TAFMPV
TAF
KMPV 121740Z 1218/1318 17014KT P6SM FEW045
     FM130600 18007KT P6SM VCSH OVC060
     FM130800 19007KT 1SM -SHSN BR OVC025
     FM130900 28014G22KT 2SM -SHSN BR OVC025
     FM131000 31014G22KT 6SM -SHSN OVC025
     FM131500 31011G17KT P6SM BKN025=

USA.gov is the U.S. government's official web portal to all federal, state and local government web resources and services.